LICA

Lamezia Terme Airport

Lamezia Terme, Italy
TAF LICA 171700Z 1718/1818 04012KT 9999 FEW030 SCT050 TEMPO 1800/1806 RA
Issued Valid From Valid To
Nov-17 @ 17:00 UTC
(5 hours ago)
Nov-17 @ 18:00 UTC
(4 hours ago)
Nov-18 @ 18:00 UTC
(in 20 hours)
Nov-17 @ 18:00 to Nov-18 @ 18:00
TAF LICA 171700Z 1718/1818 04012KT 9999 FEW030 SCT050
Wind Visibility Clouds
40° at 12 knots 10,000+ meters
  • Few at 3,000' AGL
  • Scattered at 5,000' AGL
Temporary Nov-18 @ 00:00 to Nov-18 @ 06:00
TEMPO 1800/1806 RA
Conditions
  • Rain
TAF LICA 171700Z 1718/1818 04012KT 9999 FEW030 SCT050 TEMPO 1800/1806 RA
Issued Nov-17 @ 17:00 UTC
(5 hours ago)
Valid From Nov-17 @ 18:00 UTC
(4 hours ago)
Valid To Nov-18 @ 18:00 UTC
(in 20 hours)
Nov-17 @ 18:00 - Nov-18 @ 18:00
Wind Visibility
40° at 12 knots 10,000+ meters
Clouds
  • Few at 3,000' AGL
  • Scattered at 5,000' AGL
Temporary Nov-18 @ 00:00 - Nov-18 @ 06:00
Conditions
  • Rain